Nbp Island — V2FH3 — position and weather

sailwx.info

Track history (hours):
 
Tides and Currents Weather Stations Pressure Air Temp Water Temp Dewpoint Dewpoint Depression Visibility Wind Speed Wind Dir Waves Ship Positions

Nbp Island

Last reported at 2017-Sep-21 08:24 UTC. Time now 2017-Sep-21 08:55 UTC.
Position N 50°59' E 001°36'.

Length 107 m; draft 8.2 m.

Type: Cargo ship. MMSI: 305674000.

Date/timePositionNaut miles runAvg speedWind from/ knotsBaromVisibWave heightAir tempDewpointWater temp
2017-Sep-21 08:24N 50°59' E 001°36'4 7.6
2017-Sep-21 07:51N 50°56' E 001°32'3 7.6
2017-Sep-21 07:30N 50°54' E 001°29'94 9.6
2017-Sep-20 21:39N 50°10' W 000°42'213.8
2017-Sep-20 21:29N 50°09' W 000°45'714.1
2017-Sep-20 21:00N 50°07' W 000°55'714.3
2017-Sep-20 20:30N 50°05' W 001°06'714.6
2017-Sep-20 20:00N 50°03' W 001°17'714.7
2017-Sep-20 19:30N 50°01' W 001°28'714.5
2017-Sep-20 19:01N 50°00' W 001°39'714.1
2017-Sep-20 18:30N 49°59' W 001°50'713.4
2017-Sep-20 17:59N 49°57' W 002°00'2810.8
2017-Sep-20 15:21N 49°50' W 002°43'3 9.3
2017-Sep-20 15:00N 49°49' W 002°47'52 9.1
2017-Sep-20 09:18N 49°24' W 003°57'2510.4
2017-Sep-20 06:55N 49°11' W 004°30'511.4
2017-Sep-20 06:27N 49°08' W 004°37'511.7
2017-Sep-20 06:00N 49°05' W 004°44'612.1
2017-Sep-20 05:29N 49°02' W 004°52'712.5
2017-Sep-20 04:58N 48°59' W 005°01'612.7
2017-Sep-20 04:30N 48°56' W 005°08'713.0
2017-Sep-20 04:00N 48°53' W 005°17'612.9
2017-Sep-20 03:30N 48°50' W 005°26'812.7
2017-Sep-20 02:52N 48°46' W 005°36'1912.4
2017-Sep-20 01:20N 48°30' W 005°51'412.1
2017-Sep-20 01:00N 48°26' W 005°54'911.7
2017-Sep-20 00:13N 48°18' W 006°00'  
2017-Sep-17 17:46N 39°31' W 009°50'310.4
2017-Sep-17 17:29N 39°29' W 009°50'510.2
2017-Sep-17 17:00N 39°24' W 009°50'510.2
2017-Sep-17 16:30N 39°18' W 009°50'510.2
2017-Sep-17 16:00N 39°13' W 009°50'510.5
2017-Sep-17 15:30N 39°08' W 009°51'510.2
2017-Sep-17 15:00N 39°03' W 009°50'510.3
2017-Sep-17 14:30N 38°58' W 009°50'510.3
2017-Sep-17 14:00N 38°53' W 009°50'510.0
2017-Sep-17 13:30N 38°48' W 009°50'510.1
2017-Sep-17 13:00N 38°43' W 009°50'510.0
2017-Sep-17 12:30N 38°38' W 009°48'5 9.9
2017-Sep-17 12:00N 38°33' W 009°49'5 9.9
2017-Sep-17 11:30N 38°28' W 009°48'5 9.5
2017-Sep-17 11:00N 38°23' W 009°48'5 9.5
2017-Sep-17 10:30N 38°18' W 009°48'510.1
2017-Sep-17 10:00N 38°13' W 009°48'510.3
2017-Sep-17 09:30N 38°08' W 009°48'  
2017-Sep-14 17:51N 32°19' W 009°15'1 0.1
2017-Sep-14 08:50N 32°19' W 009°15'1 1.8
2017-Sep-14 08:30N 32°19' W 009°16'2 3.9
2017-Sep-14 08:01N 32°18' W 009°18'  
Track history (hours):
 
Tides and Currents Weather Stations Pressure Air Temp Water Temp Dewpoint Dewpoint Depression Visibility Wind Speed Wind Dir Waves Ship Positions

Nbp Island

Last reported at 2017-Sep-21 08:24 UTC. Time now 2017-Sep-21 08:55 UTC.
Position N 50°59' E 001°36'.

Length 107 m; draft 8.2 m.

Type: Cargo ship. MMSI: 305674000.

Date/timePositionNaut miles runAvg speedWind from/ knotsBaromVisibWave heightAir tempDewpointWater temp
2017-Sep-21 08:24N 50°59' E 001°36'4 7.6
2017-Sep-21 07:51N 50°56' E 001°32'3 7.6
2017-Sep-21 07:30N 50°54' E 001°29'94 9.6
2017-Sep-20 21:39N 50°10' W 000°42'213.8
2017-Sep-20 21:29N 50°09' W 000°45'714.1
2017-Sep-20 21:00N 50°07' W 000°55'714.3
2017-Sep-20 20:30N 50°05' W 001°06'714.6
2017-Sep-20 20:00N 50°03' W 001°17'714.7
2017-Sep-20 19:30N 50°01' W 001°28'714.5
2017-Sep-20 19:01N 50°00' W 001°39'714.1
2017-Sep-20 18:30N 49°59' W 001°50'713.4
2017-Sep-20 17:59N 49°57' W 002°00'2810.8
2017-Sep-20 15:21N 49°50' W 002°43'3 9.3
2017-Sep-20 15:00N 49°49' W 002°47'52 9.1
2017-Sep-20 09:18N 49°24' W 003°57'2510.4
2017-Sep-20 06:55N 49°11' W 004°30'511.4
2017-Sep-20 06:27N 49°08' W 004°37'511.7
2017-Sep-20 06:00N 49°05' W 004°44'612.1
2017-Sep-20 05:29N 49°02' W 004°52'712.5
2017-Sep-20 04:58N 48°59' W 005°01'612.7
2017-Sep-20 04:30N 48°56' W 005°08'713.0
2017-Sep-20 04:00N 48°53' W 005°17'612.9
2017-Sep-20 03:30N 48°50' W 005°26'812.7
2017-Sep-20 02:52N 48°46' W 005°36'1912.4
2017-Sep-20 01:20N 48°30' W 005°51'412.1
2017-Sep-20 01:00N 48°26' W 005°54'911.7
2017-Sep-20 00:13N 48°18' W 006°00'  
2017-Sep-17 17:46N 39°31' W 009°50'310.4
2017-Sep-17 17:29N 39°29' W 009°50'510.2
2017-Sep-17 17:00N 39°24' W 009°50'510.2
2017-Sep-17 16:30N 39°18' W 009°50'510.2
2017-Sep-17 16:00N 39°13' W 009°50'510.5
2017-Sep-17 15:30N 39°08' W 009°51'510.2
2017-Sep-17 15:00N 39°03' W 009°50'510.3
2017-Sep-17 14:30N 38°58' W 009°50'510.3
2017-Sep-17 14:00N 38°53' W 009°50'510.0
2017-Sep-17 13:30N 38°48' W 009°50'510.1
2017-Sep-17 13:00N 38°43' W 009°50'510.0
2017-Sep-17 12:30N 38°38' W 009°48'5 9.9
2017-Sep-17 12:00N 38°33' W 009°49'5 9.9
2017-Sep-17 11:30N 38°28' W 009°48'5 9.5
2017-Sep-17 11:00N 38°23' W 009°48'5 9.5
2017-Sep-17 10:30N 38°18' W 009°48'510.1
2017-Sep-17 10:00N 38°13' W 009°48'510.3
2017-Sep-17 09:30N 38°08' W 009°48'  
2017-Sep-14 17:51N 32°19' W 009°15'1 0.1
2017-Sep-14 08:50N 32°19' W 009°15'1 1.8
2017-Sep-14 08:30N 32°19' W 009°16'2 3.9
2017-Sep-14 08:01N 32°18' W 009°18'  

Dump ship's entire track history